sensor_id;sensor_type;location;lat;lon;timestamp;P1;durP1;ratioP1;P2;durP2;ratioP2
57231;SDS011;43488;46.934;8.276;2023-07-13T00:00:12;612.10;;;321.83;;
57231;SDS011;43488;46.934;8.276;2023-07-13T00:02:42;601.85;;;404.05;;
57231;SDS011;43488;46.934;8.276;2023-07-13T00:05:10;621.90;;;348.83;;
57231;SDS011;43488;46.934;8.276;2023-07-13T00:07:37;594.50;;;393.85;;
57231;SDS011;43488;46.934;8.276;2023-07-13T00:10:05;622.13;;;347.60;;
57231;SDS011;43488;46.934;8.276;2023-07-13T00:12:35;601.03;;;404.05;;
57231;SDS011;43488;46.934;8.276;2023-07-13T00:15:07;618.88;;;341.38;;
57231;SDS011;43488;46.934;8.276;2023-07-13T00:17:50;620.30;;;350.23;;
57231;SDS011;43488;46.934;8.276;2023-07-13T00:20:23;612.45;;;421.95;;
57231;SDS011;43488;46.934;8.276;2023-07-13T00:22:52;609.53;;;414.27;;
57231;SDS011;43488;46.934;8.276;2023-07-13T00:25:20;619.88;;;350.67;;
57231;SDS011;43488;46.934;8.276;2023-07-13T00:27:56;614.05;;;416.65;;
57231;SDS011;43488;46.934;8.276;2023-07-13T00:30:24;622.00;;;352.33;;
57231;SDS011;43488;46.934;8.276;2023-07-13T00:32:52;625.15;;;356.70;;
57231;SDS011;43488;46.934;8.276;2023-07-13T00:35:20;614.67;;;418.48;;
57231;SDS011;43488;46.934;8.276;2023-07-13T00:37:48;616.78;;;426.75;;
57231;SDS011;43488;46.934;8.276;2023-07-13T00:40:17;626.65;;;356.55;;
57231;SDS011;43488;46.934;8.276;2023-07-13T00:43:04;611.38;;;414.98;;
57231;SDS011;43488;46.934;8.276;2023-07-13T00:48:17;611.58;;;415.58;;
57231;SDS011;43488;46.934;8.276;2023-07-13T00:50:55;614.80;;;338.55;;
57231;SDS011;43488;46.934;8.276;2023-07-13T00:53:28;619.05;;;424.92;;
57231;SDS011;43488;46.934;8.276;2023-07-13T00:55:58;616.20;;;408.57;;
57231;SDS011;43488;46.934;8.276;2023-07-13T00:58:27;622.90;;;353.67;;
57231;SDS011;43488;46.934;8.276;2023-07-13T01:00:55;624.45;;;426.65;;
57231;SDS011;43488;46.934;8.276;2023-07-13T01:03:23;631.65;;;367.40;;
57231;SDS011;43488;46.934;8.276;2023-07-13T01:05:51;629.80;;;359.80;;
57231;SDS011;43488;46.934;8.276;2023-07-13T01:08:20;616.22;;;417.48;;
57231;SDS011;43488;46.934;8.276;2023-07-13T01:10:53;622.63;;;351.17;;
57231;SDS011;43488;46.934;8.276;2023-07-13T01:13:24;627.67;;;359.30;;
57231;SDS011;43488;46.934;8.276;2023-07-13T01:15:52;628.35;;;357.15;;
57231;SDS011;43488;46.934;8.276;2023-07-13T01:18:38;632.28;;;366.95;;
57231;SDS011;43488;46.934;8.276;2023-07-13T01:21:05;627.78;;;426.45;;
57231;SDS011;43488;46.934;8.276;2023-07-13T01:23:32;629.92;;;360.67;;
57231;SDS011;43488;46.934;8.276;2023-07-13T01:26:00;632.15;;;358.35;;
57231;SDS011;43488;46.934;8.276;2023-07-13T01:28:27;629.22;;;356.33;;
57231;SDS011;43488;46.934;8.276;2023-07-13T01:30:56;621.03;;;415.95;;
57231;SDS011;43488;46.934;8.276;2023-07-13T01:33:26;634.33;;;366.02;;
57231;SDS011;43488;46.934;8.276;2023-07-13T01:35:53;625.10;;;418.52;;
57231;SDS011;43488;46.934;8.276;2023-07-13T01:38:23;624.70;;;422.40;;
57231;SDS011;43488;46.934;8.276;2023-07-13T01:40:53;627.95;;;360.25;;
57231;SDS011;43488;46.934;8.276;2023-07-13T01:43:22;626.88;;;351.67;;
57231;SDS011;43488;46.934;8.276;2023-07-13T01:45:50;625.00;;;412.80;;
57231;SDS011;43488;46.934;8.276;2023-07-13T01:48:18;628.30;;;359.05;;
57231;SDS011;43488;46.934;8.276;2023-07-13T01:50:47;628.47;;;422.80;;
57231;SDS011;43488;46.934;8.276;2023-07-13T01:53:14;633.33;;;369.20;;
57231;SDS011;43488;46.934;8.276;2023-07-13T01:55:42;627.33;;;424.30;;
57231;SDS011;43488;46.934;8.276;2023-07-13T01:58:09;631.78;;;356.67;;
57231;SDS011;43488;46.934;8.276;2023-07-13T02:00:37;629.38;;;354.13;;
57231;SDS011;43488;46.934;8.276;2023-07-13T02:03:04;629.25;;;363.80;;
57231;SDS011;43488;46.934;8.276;2023-07-13T02:05:32;629.25;;;353.40;;
57231;SDS011;43488;46.934;8.276;2023-07-13T02:08:00;634.92;;;364.13;;
57231;SDS011;43488;46.934;8.276;2023-07-13T02:10:28;627.25;;;423.15;;
57231;SDS011;43488;46.934;8.276;2023-07-13T02:12:55;632.75;;;361.95;;
57231;SDS011;43488;46.934;8.276;2023-07-13T02:15:23;634.17;;;358.75;;
57231;SDS011;43488;46.934;8.276;2023-07-13T02:17:50;636.50;;;368.50;;
57231;SDS011;43488;46.934;8.276;2023-07-13T02:20:18;630.97;;;424.02;;
57231;SDS011;43488;46.934;8.276;2023-07-13T02:22:46;626.78;;;355.67;;
57231;SDS011;43488;46.934;8.276;2023-07-13T02:25:14;626.90;;;418.40;;
57231;SDS011;43488;46.934;8.276;2023-07-13T02:27:41;629.95;;;432.25;;
57231;SDS011;43488;46.934;8.276;2023-07-13T02:30:09;636.03;;;364.20;;
57231;SDS011;43488;46.934;8.276;2023-07-13T02:32:39;633.07;;;363.93;;
57231;SDS011;43488;46.934;8.276;2023-07-13T02:35:06;630.78;;;357.70;;
57231;SDS011;43488;46.934;8.276;2023-07-13T02:37:34;624.17;;;413.70;;
57231;SDS011;43488;46.934;8.276;2023-07-13T02:40:01;629.38;;;416.88;;
57231;SDS011;43488;46.934;8.276;2023-07-13T02:42:34;628.95;;;426.42;;
57231;SDS011;43488;46.934;8.276;2023-07-13T02:45:02;635.63;;;358.60;;
57231;SDS011;43488;46.934;8.276;2023-07-13T02:47:31;626.10;;;418.13;;
57231;SDS011;43488;46.934;8.276;2023-07-13T02:50:00;630.78;;;426.98;;
57231;SDS011;43488;46.934;8.276;2023-07-13T02:52:27;634.13;;;364.23;;
57231;SDS011;43488;46.934;8.276;2023-07-13T02:54:55;631.75;;;356.52;;
57231;SDS011;43488;46.934;8.276;2023-07-13T02:57:22;626.60;;;352.23;;
57231;SDS011;43488;46.934;8.276;2023-07-13T02:59:50;629.08;;;355.73;;
57231;SDS011;43488;46.934;8.276;2023-07-13T03:02:17;631.63;;;360.60;;
57231;SDS011;43488;46.934;8.276;2023-07-13T03:04:45;630.88;;;420.17;;
57231;SDS011;43488;46.934;8.276;2023-07-13T03:07:13;630.05;;;355.30;;
57231;SDS011;43488;46.934;8.276;2023-07-13T03:09:41;627.30;;;416.98;;
57231;SDS011;43488;46.934;8.276;2023-07-13T03:12:09;631.83;;;357.50;;
57231;SDS011;43488;46.934;8.276;2023-07-13T03:14:36;629.53;;;416.10;;
57231;SDS011;43488;46.934;8.276;2023-07-13T03:17:04;631.95;;;355.30;;
57231;SDS011;43488;46.934;8.276;2023-07-13T03:19:31;628.35;;;422.35;;
57231;SDS011;43488;46.934;8.276;2023-07-13T03:21:59;626.58;;;422.33;;
57231;SDS011;43488;46.934;8.276;2023-07-13T03:24:26;630.97;;;350.42;;
57231;SDS011;43488;46.934;8.276;2023-07-13T03:26:54;627.20;;;352.02;;
57231;SDS011;43488;46.934;8.276;2023-07-13T03:29:21;627.40;;;351.17;;
57231;SDS011;43488;46.934;8.276;2023-07-13T03:31:49;632.63;;;430.75;;
57231;SDS011;43488;46.934;8.276;2023-07-13T03:34:16;635.97;;;361.45;;
57231;SDS011;43488;46.934;8.276;2023-07-13T03:36:43;628.05;;;416.40;;
57231;SDS011;43488;46.934;8.276;2023-07-13T03:39:10;629.53;;;418.35;;
57231;SDS011;43488;46.934;8.276;2023-07-13T03:41:38;631.85;;;357.73;;
57231;SDS011;43488;46.934;8.276;2023-07-13T03:44:05;630.95;;;352.58;;
57231;SDS011;43488;46.934;8.276;2023-07-13T03:46:33;630.00;;;357.05;;
57231;SDS011;43488;46.934;8.276;2023-07-13T03:49:01;633.17;;;421.73;;
57231;SDS011;43488;46.934;8.276;2023-07-13T03:51:28;631.10;;;417.08;;
57231;SDS011;43488;46.934;8.276;2023-07-13T03:53:56;631.53;;;418.77;;
57231;SDS011;43488;46.934;8.276;2023-07-13T03:56:23;635.63;;;361.05;;
57231;SDS011;43488;46.934;8.276;2023-07-13T03:58:51;629.67;;;422.67;;
57231;SDS011;43488;46.934;8.276;2023-07-13T04:01:19;631.47;;;424.40;;
57231;SDS011;43488;46.934;8.276;2023-07-13T04:03:49;635.27;;;353.30;;
57231;SDS011;43488;46.934;8.276;2023-07-13T04:06:17;632.55;;;356.92;;
57231;SDS011;43488;46.934;8.276;2023-07-13T04:08:56;628.70;;;413.23;;
57231;SDS011;43488;46.934;8.276;2023-07-13T04:11:27;644.50;;;432.40;;
57231;SDS011;43488;46.934;8.276;2023-07-13T04:13:58;640.95;;;357.67;;
57231;SDS011;43488;46.934;8.276;2023-07-13T04:16:26;629.97;;;419.30;;
57231;SDS011;43488;46.934;8.276;2023-07-13T04:18:54;627.67;;;349.80;;
57231;SDS011;43488;46.934;8.276;2023-07-13T04:21:26;631.72;;;430.05;;
57231;SDS011;43488;46.934;8.276;2023-07-13T04:23:55;628.22;;;418.10;;
57231;SDS011;43488;46.934;8.276;2023-07-13T04:26:23;632.75;;;360.30;;
57231;SDS011;43488;46.934;8.276;2023-07-13T04:28:52;632.25;;;357.45;;
57231;SDS011;43488;46.934;8.276;2023-07-13T04:31:20;625.63;;;424.60;;
57231;SDS011;43488;46.934;8.276;2023-07-13T04:33:48;623.30;;;417.45;;
57231;SDS011;43488;46.934;8.276;2023-07-13T04:36:17;623.88;;;421.55;;
57231;SDS011;43488;46.934;8.276;2023-07-13T04:38:44;621.95;;;414.23;;
57231;SDS011;43488;46.934;8.276;2023-07-13T04:41:12;623.28;;;354.92;;
57231;SDS011;43488;46.934;8.276;2023-07-13T04:43:41;624.47;;;416.50;;
57231;SDS011;43488;46.934;8.276;2023-07-13T04:46:12;626.03;;;352.92;;
57231;SDS011;43488;46.934;8.276;2023-07-13T04:48:43;624.45;;;426.17;;
57231;SDS011;43488;46.934;8.276;2023-07-13T04:51:11;624.63;;;357.52;;
57231;SDS011;43488;46.934;8.276;2023-07-13T04:53:38;630.92;;;363.70;;
57231;SDS011;43488;46.934;8.276;2023-07-13T04:56:05;623.90;;;433.45;;
57231;SDS011;43488;46.934;8.276;2023-07-13T04:58:33;625.38;;;352.63;;
57231;SDS011;43488;46.934;8.276;2023-07-13T05:01:01;622.63;;;424.23;;
57231;SDS011;43488;46.934;8.276;2023-07-13T05:03:31;625.78;;;346.55;;
57231;SDS011;43488;46.934;8.276;2023-07-13T05:06:05;620.10;;;347.08;;
57231;SDS011;43488;46.934;8.276;2023-07-13T05:08:36;629.08;;;355.92;;
57231;SDS011;43488;46.934;8.276;2023-07-13T05:11:04;619.28;;;416.70;;
57231;SDS011;43488;46.934;8.276;2023-07-13T05:13:33;629.35;;;359.40;;
57231;SDS011;43488;46.934;8.276;2023-07-13T05:16:02;624.90;;;351.40;;
57231;SDS011;43488;46.934;8.276;2023-07-13T05:18:34;619.10;;;417.40;;
57231;SDS011;43488;46.934;8.276;2023-07-13T05:21:07;629.45;;;363.80;;
57231;SDS011;43488;46.934;8.276;2023-07-13T05:23:37;621.63;;;420.23;;
57231;SDS011;43488;46.934;8.276;2023-07-13T05:26:05;619.42;;;345.77;;
57231;SDS011;43488;46.934;8.276;2023-07-13T05:28:32;622.65;;;422.60;;
57231;SDS011;43488;46.934;8.276;2023-07-13T05:31:00;624.40;;;357.58;;
57231;SDS011;43488;46.934;8.276;2023-07-13T05:33:27;622.30;;;417.80;;
57231;SDS011;43488;46.934;8.276;2023-07-13T05:35:55;619.53;;;423.92;;
57231;SDS011;43488;46.934;8.276;2023-07-13T05:38:22;627.53;;;356.23;;
57231;SDS011;43488;46.934;8.276;2023-07-13T05:40:54;618.63;;;351.58;;
57231;SDS011;43488;46.934;8.276;2023-07-13T05:43:23;624.72;;;349.65;;
57231;SDS011;43488;46.934;8.276;2023-07-13T05:45:52;627.63;;;356.58;;
57231;SDS011;43488;46.934;8.276;2023-07-13T05:48:21;611.97;;;336.17;;
57231;SDS011;43488;46.934;8.276;2023-07-13T05:50:50;596.85;;;399.25;;
57231;SDS011;43488;46.934;8.276;2023-07-13T05:53:19;612.78;;;341.75;;
57231;SDS011;43488;46.934;8.276;2023-07-13T05:55:47;602.50;;;408.33;;
57231;SDS011;43488;46.934;8.276;2023-07-13T05:58:17;604.17;;;412.75;;
57231;SDS011;43488;46.934;8.276;2023-07-13T06:00:46;597.08;;;406.77;;
57231;SDS011;43488;46.934;8.276;2023-07-13T06:03:15;594.50;;;390.42;;
57231;SDS011;43488;46.934;8.276;2023-07-13T06:05:42;608.65;;;331.80;;
57231;SDS011;43488;46.934;8.276;2023-07-13T06:08:10;604.22;;;327.45;;
57231;SDS011;43488;46.934;8.276;2023-07-13T06:10:37;610.38;;;415.17;;
57231;SDS011;43488;46.934;8.276;2023-07-13T06:13:05;608.78;;;335.50;;
57231;SDS011;43488;46.934;8.276;2023-07-13T06:15:32;595.28;;;398.85;;
57231;SDS011;43488;46.934;8.276;2023-07-13T06:18:05;593.95;;;389.90;;
57231;SDS011;43488;46.934;8.276;2023-07-13T06:20:34;606.65;;;337.48;;
57231;SDS011;43488;46.934;8.276;2023-07-13T06:23:02;608.47;;;332.23;;
57231;SDS011;43488;46.934;8.276;2023-07-13T06:25:29;615.50;;;334.80;;
57231;SDS011;43488;46.934;8.276;2023-07-13T06:27:57;587.83;;;382.45;;
57231;SDS011;43488;46.934;8.276;2023-07-13T06:30:24;590.08;;;379.63;;
57231;SDS011;43488;46.934;8.276;2023-07-13T06:32:52;586.83;;;369.25;;
57231;SDS011;43488;46.934;8.276;2023-07-13T06:35:20;609.97;;;338.33;;
57231;SDS011;43488;46.934;8.276;2023-07-13T06:37:47;596.47;;;396.15;;
57231;SDS011;43488;46.934;8.276;2023-07-13T06:40:14;610.88;;;334.70;;
57231;SDS011;43488;46.934;8.276;2023-07-13T06:42:43;603.60;;;322.25;;
57231;SDS011;43488;46.934;8.276;2023-07-13T06:45:10;595.78;;;403.17;;
57231;SDS011;43488;46.934;8.276;2023-07-13T06:47:37;614.13;;;343.63;;
57231;SDS011;43488;46.934;8.276;2023-07-13T06:50:05;589.47;;;387.58;;
57231;SDS011;43488;46.934;8.276;2023-07-13T06:52:32;600.50;;;409.20;;
57231;SDS011;43488;46.934;8.276;2023-07-13T06:55:00;610.63;;;333.02;;
57231;SDS011;43488;46.934;8.276;2023-07-13T06:57:28;616.30;;;346.17;;
57231;SDS011;43488;46.934;8.276;2023-07-13T06:59:55;615.47;;;351.70;;
57231;SDS011;43488;46.934;8.276;2023-07-13T07:02:23;614.72;;;342.67;;
57231;SDS011;43488;46.934;8.276;2023-07-13T07:04:50;603.22;;;322.65;;
57231;SDS011;43488;46.934;8.276;2023-07-13T07:07:19;614.78;;;345.45;;
57231;SDS011;43488;46.934;8.276;2023-07-13T07:09:46;594.72;;;394.00;;
57231;SDS011;43488;46.934;8.276;2023-07-13T07:12:14;609.47;;;323.33;;
57231;SDS011;43488;46.934;8.276;2023-07-13T07:14:42;602.47;;;311.88;;
57231;SDS011;43488;46.934;8.276;2023-07-13T07:17:10;613.70;;;325.30;;
57231;SDS011;43488;46.934;8.276;2023-07-13T07:19:40;592.85;;;385.63;;
57231;SDS011;43488;46.934;8.276;2023-07-13T07:22:07;616.00;;;323.30;;
57231;SDS011;43488;46.934;8.276;2023-07-13T07:24:35;624.65;;;337.42;;
57231;SDS011;43488;46.934;8.276;2023-07-13T07:27:05;645.45;;;363.00;;
57231;SDS011;43488;46.934;8.276;2023-07-13T07:29:32;609.58;;;395.83;;
57231;SDS011;43488;46.934;8.276;2023-07-13T07:32:00;630.60;;;328.27;;
57231;SDS011;43488;46.934;8.276;2023-07-13T07:34:27;615.65;;;387.90;;
57231;SDS011;43488;46.934;8.276;2023-07-13T07:36:58;621.72;;;392.92;;
57231;SDS011;43488;46.934;8.276;2023-07-13T07:39:27;643.08;;;343.90;;
57231;SDS011;43488;46.934;8.276;2023-07-13T07:41:55;612.33;;;361.17;;
57231;SDS011;43488;46.934;8.276;2023-07-13T07:44:22;629.63;;;326.20;;
57231;SDS011;43488;46.934;8.276;2023-07-13T07:46:50;627.35;;;446.38;;
57231;SDS011;43488;46.934;8.276;2023-07-13T07:49:17;631.35;;;368.08;;
57231;SDS011;43488;46.934;8.276;2023-07-13T07:51:45;636.47;;;327.75;;
57231;SDS011;43488;46.934;8.276;2023-07-13T07:54:13;622.08;;;388.75;;
57231;SDS011;43488;46.934;8.276;2023-07-13T07:56:41;628.85;;;347.15;;
57231;SDS011;43488;46.934;8.276;2023-07-13T07:59:09;634.08;;;361.50;;
57231;SDS011;43488;46.934;8.276;2023-07-13T08:01:37;631.13;;;354.90;;
57231;SDS011;43488;46.934;8.276;2023-07-13T08:04:04;622.20;;;351.20;;
57231;SDS011;43488;46.934;8.276;2023-07-13T08:06:32;617.00;;;410.95;;
57231;SDS011;43488;46.934;8.276;2023-07-13T08:09:01;604.63;;;418.83;;
57231;SDS011;43488;46.934;8.276;2023-07-13T08:11:31;625.70;;;362.48;;
57231;SDS011;43488;46.934;8.276;2023-07-13T08:13:59;619.25;;;436.90;;
57231;SDS011;43488;46.934;8.276;2023-07-13T08:16:26;631.83;;;373.55;;
57231;SDS011;43488;46.934;8.276;2023-07-13T08:18:55;626.60;;;364.92;;
57231;SDS011;43488;46.934;8.276;2023-07-13T08:21:23;627.35;;;366.77;;
57231;SDS011;43488;46.934;8.276;2023-07-13T08:23:52;615.67;;;422.05;;
57231;SDS011;43488;46.934;8.276;2023-07-13T08:26:19;619.10;;;432.77;;
57231;SDS011;43488;46.934;8.276;2023-07-13T08:28:47;609.67;;;424.05;;
57231;SDS011;43488;46.934;8.276;2023-07-13T08:31:14;627.85;;;356.52;;
57231;SDS011;43488;46.934;8.276;2023-07-13T08:33:41;620.20;;;428.80;;
57231;SDS011;43488;46.934;8.276;2023-07-13T08:36:09;618.22;;;347.70;;
57231;SDS011;43488;46.934;8.276;2023-07-13T08:38:36;616.83;;;426.45;;
57231;SDS011;43488;46.934;8.276;2023-07-13T08:41:14;628.53;;;366.95;;
57231;SDS011;43488;46.934;8.276;2023-07-13T08:43:45;622.88;;;431.52;;
57231;SDS011;43488;46.934;8.276;2023-07-13T08:46:26;609.20;;;429.52;;
57231;SDS011;43488;46.934;8.276;2023-07-13T08:49:03;600.38;;;387.25;;
57231;SDS011;43488;46.934;8.276;2023-07-13T08:51:41;622.22;;;297.95;;
57231;SDS011;43488;46.934;8.276;2023-07-13T08:56:57;624.35;;;331.50;;
57231;SDS011;43488;46.934;8.276;2023-07-13T08:59:30;615.53;;;411.40;;
57231;SDS011;43488;46.934;8.276;2023-07-13T09:04:48;619.08;;;321.30;;
57231;SDS011;43488;46.934;8.276;2023-07-13T09:10:37;607.78;;;393.35;;
57231;SDS011;43488;46.934;8.276;2023-07-13T09:16:12;622.70;;;320.42;;
57231;SDS011;43488;46.934;8.276;2023-07-13T09:18:41;609.83;;;397.73;;
57231;SDS011;43488;46.934;8.276;2023-07-13T09:21:25;602.97;;;390.90;;
57231;SDS011;43488;46.934;8.276;2023-07-13T09:24:01;619.58;;;315.83;;
57231;SDS011;43488;46.934;8.276;2023-07-13T09:26:56;623.92;;;327.63;;
57231;SDS011;43488;46.934;8.276;2023-07-13T09:29:32;620.20;;;323.30;;
57231;SDS011;43488;46.934;8.276;2023-07-13T09:32:04;623.42;;;327.50;;
57231;SDS011;43488;46.934;8.276;2023-07-13T09:34:34;615.27;;;399.27;;
57231;SDS011;43488;46.934;8.276;2023-07-13T09:37:01;626.75;;;328.77;;
57231;SDS011;43488;46.934;8.276;2023-07-13T09:47:27;626.13;;;335.35;;
57231;SDS011;43488;46.934;8.276;2023-07-13T09:52:41;628.70;;;333.42;;
57231;SDS011;43488;46.934;8.276;2023-07-13T09:55:34;620.80;;;322.73;;
57231;SDS011;43488;46.934;8.276;2023-07-13T09:58:09;630.17;;;346.33;;
57231;SDS011;43488;46.934;8.276;2023-07-13T10:00:43;611.95;;;400.60;;
57231;SDS011;43488;46.934;8.276;2023-07-13T10:03:21;609.45;;;392.90;;
57231;SDS011;43488;46.934;8.276;2023-07-13T10:05:54;622.03;;;324.77;;
57231;SDS011;43488;46.934;8.276;2023-07-13T10:08:28;608.42;;;391.63;;
57231;SDS011;43488;46.934;8.276;2023-07-13T10:11:08;631.03;;;383.40;;
57231;SDS011;43488;46.934;8.276;2023-07-13T10:14:11;606.20;;;440.98;;
57231;SDS011;43488;46.934;8.276;2023-07-13T10:16:45;625.58;;;327.80;;
57231;SDS011;43488;46.934;8.276;2023-07-13T10:19:21;606.28;;;386.08;;
57231;SDS011;43488;46.934;8.276;2023-07-13T10:25:38;627.05;;;397.27;;
57231;SDS011;43488;46.934;8.276;2023-07-13T10:28:13;607.42;;;313.75;;
57231;SDS011;43488;46.934;8.276;2023-07-13T10:31:00;613.90;;;381.92;;
57231;SDS011;43488;46.934;8.276;2023-07-13T10:33:30;641.40;;;342.20;;
57231;SDS011;43488;46.934;8.276;2023-07-13T10:36:01;626.92;;;390.65;;
57231;SDS011;43488;46.934;8.276;2023-07-13T10:38:55;631.80;;;376.50;;
57231;SDS011;43488;46.934;8.276;2023-07-13T10:41:25;623.53;;;359.85;;
57231;SDS011;43488;46.934;8.276;2023-07-13T10:43:55;636.58;;;446.52;;
57231;SDS011;43488;46.934;8.276;2023-07-13T10:46:25;652.83;;;404.20;;
57231;SDS011;43488;46.934;8.276;2023-07-13T10:48:56;650.88;;;446.25;;
57231;SDS011;43488;46.934;8.276;2023-07-13T10:51:34;654.47;;;386.58;;
57231;SDS011;43488;46.934;8.276;2023-07-13T10:54:21;659.17;;;380.40;;
57231;SDS011;43488;46.934;8.276;2023-07-13T11:02:29;649.20;;;438.57;;
57231;SDS011;43488;46.934;8.276;2023-07-13T11:04:57;648.65;;;445.30;;
57231;SDS011;43488;46.934;8.276;2023-07-13T11:07:28;650.42;;;447.10;;
57231;SDS011;43488;46.934;8.276;2023-07-13T11:10:47;642.78;;;379.60;;
57231;SDS011;43488;46.934;8.276;2023-07-13T11:13:55;646.33;;;439.63;;
57231;SDS011;43488;46.934;8.276;2023-07-13T11:22:02;646.35;;;383.80;;
57231;SDS011;43488;46.934;8.276;2023-07-13T11:24:54;647.08;;;385.33;;
57231;SDS011;43488;46.934;8.276;2023-07-13T11:30:18;649.10;;;389.05;;
57231;SDS011;43488;46.934;8.276;2023-07-13T11:36:00;644.17;;;376.30;;
57231;SDS011;43488;46.934;8.276;2023-07-13T11:38:36;649.17;;;436.58;;
57231;SDS011;43488;46.934;8.276;2023-07-13T11:44:01;669.17;;;452.30;;
57231;SDS011;43488;46.934;8.276;2023-07-13T11:46:49;658.25;;;378.98;;
57231;SDS011;43488;46.934;8.276;2023-07-13T11:49:48;668.75;;;439.45;;
57231;SDS011;43488;46.934;8.276;2023-07-13T11:52:31;657.67;;;380.42;;
57231;SDS011;43488;46.934;8.276;2023-07-13T11:55:03;664.47;;;381.93;;
57231;SDS011;43488;46.934;8.276;2023-07-13T11:57:50;664.65;;;451.15;;
57231;SDS011;43488;46.934;8.276;2023-07-13T12:00:28;661.25;;;382.73;;
57231;SDS011;43488;46.934;8.276;2023-07-13T12:03:00;663.13;;;384.48;;
57231;SDS011;43488;46.934;8.276;2023-07-13T12:05:34;649.78;;;364.05;;
57231;SDS011;43488;46.934;8.276;2023-07-13T12:08:09;667.00;;;382.38;;
57231;SDS011;43488;46.934;8.276;2023-07-13T12:10:40;667.75;;;384.48;;
57231;SDS011;43488;46.934;8.276;2023-07-13T12:13:08;667.67;;;384.15;;
57231;SDS011;43488;46.934;8.276;2023-07-13T12:15:38;674.65;;;432.40;;
57231;SDS011;43488;46.934;8.276;2023-07-13T12:18:14;678.80;;;439.73;;
57231;SDS011;43488;46.934;8.276;2023-07-13T12:20:50;673.28;;;441.70;;
57231;SDS011;43488;46.934;8.276;2023-07-13T12:23:22;666.95;;;383.17;;
57231;SDS011;43488;46.934;8.276;2023-07-13T12:25:57;660.08;;;377.63;;
57231;SDS011;43488;46.934;8.276;2023-07-13T12:28:34;672.72;;;434.90;;
57231;SDS011;43488;46.934;8.276;2023-07-13T12:34:11;669.88;;;390.33;;
57231;SDS011;43488;46.934;8.276;2023-07-13T12:39:20;669.30;;;389.80;;
57231;SDS011;43488;46.934;8.276;2023-07-13T12:44:53;630.78;;;396.77;;
57231;SDS011;43488;46.934;8.276;2023-07-13T12:47:38;688.00;;;468.98;;
57231;SDS011;43488;46.934;8.276;2023-07-13T12:50:14;645.63;;;452.45;;
57231;SDS011;43488;46.934;8.276;2023-07-13T12:52:49;653.83;;;454.10;;
57231;SDS011;43488;46.934;8.276;2023-07-13T12:55:30;665.40;;;394.50;;
57231;SDS011;43488;46.934;8.276;2023-07-13T12:57:59;626.65;;;442.08;;
57231;SDS011;43488;46.934;8.276;2023-07-13T13:00:32;633.70;;;450.50;;
57231;SDS011;43488;46.934;8.276;2023-07-13T13:03:06;636.20;;;451.55;;
57231;SDS011;43488;46.934;8.276;2023-07-13T13:05:48;643.17;;;434.38;;
57231;SDS011;43488;46.934;8.276;2023-07-13T13:08:16;647.17;;;406.65;;
57231;SDS011;43488;46.934;8.276;2023-07-13T13:10:45;640.80;;;408.83;;
57231;SDS011;43488;46.934;8.276;2023-07-13T13:13:13;641.33;;;397.40;;
57231;SDS011;43488;46.934;8.276;2023-07-13T13:15:41;651.42;;;465.75;;
57231;SDS011;43488;46.934;8.276;2023-07-13T13:18:13;657.13;;;400.23;;
57231;SDS011;43488;46.934;8.276;2023-07-13T13:20:46;654.72;;;454.60;;
57231;SDS011;43488;46.934;8.276;2023-07-13T13:23:15;664.85;;;400.85;;
57231;SDS011;43488;46.934;8.276;2023-07-13T13:25:45;657.00;;;462.23;;
57231;SDS011;43488;46.934;8.276;2023-07-13T13:28:18;654.75;;;452.13;;
57231;SDS011;43488;46.934;8.276;2023-07-13T13:30:49;649.45;;;456.50;;
57231;SDS011;43488;46.934;8.276;2023-07-13T13:33:18;642.28;;;383.80;;
57231;SDS011;43488;46.934;8.276;2023-07-13T13:35:48;652.28;;;454.88;;
57231;SDS011;43488;46.934;8.276;2023-07-13T13:38:17;645.50;;;393.73;;
57231;SDS011;43488;46.934;8.276;2023-07-13T13:40:51;651.67;;;459.45;;
57231;SDS011;43488;46.934;8.276;2023-07-13T13:43:21;647.22;;;385.23;;
57231;SDS011;43488;46.934;8.276;2023-07-13T13:45:55;669.83;;;445.65;;
57231;SDS011;43488;46.934;8.276;2023-07-13T13:48:30;650.13;;;456.08;;
57231;SDS011;43488;46.934;8.276;2023-07-13T13:51:01;643.50;;;399.10;;
57231;SDS011;43488;46.934;8.276;2023-07-13T13:53:45;645.78;;;451.92;;
57231;SDS011;43488;46.934;8.276;2023-07-13T13:56:14;643.58;;;402.38;;
57231;SDS011;43488;46.934;8.276;2023-07-13T13:58:45;655.78;;;388.23;;
57231;SDS011;43488;46.934;8.276;2023-07-13T14:01:17;655.53;;;393.73;;
57231;SDS011;43488;46.934;8.276;2023-07-13T14:03:51;644.22;;;401.38;;
57231;SDS011;43488;46.934;8.276;2023-07-13T14:06:18;643.97;;;413.70;;
57231;SDS011;43488;46.934;8.276;2023-07-13T14:08:50;641.90;;;391.98;;
57231;SDS011;43488;46.934;8.276;2023-07-13T14:11:18;638.42;;;399.45;;
57231;SDS011;43488;46.934;8.276;2023-07-13T14:13:57;643.13;;;398.38;;
57231;SDS011;43488;46.934;8.276;2023-07-13T14:16:31;653.70;;;451.70;;
57231;SDS011;43488;46.934;8.276;2023-07-13T14:19:00;630.40;;;458.67;;
57231;SDS011;43488;46.934;8.276;2023-07-13T14:21:28;633.67;;;431.80;;
57231;SDS011;43488;46.934;8.276;2023-07-13T14:23:57;649.58;;;410.70;;
57231;SDS011;43488;46.934;8.276;2023-07-13T14:26:25;631.90;;;459.95;;
57231;SDS011;43488;46.934;8.276;2023-07-13T14:28:55;650.20;;;409.88;;
57231;SDS011;43488;46.934;8.276;2023-07-13T14:31:26;637.17;;;445.75;;
57231;SDS011;43488;46.934;8.276;2023-07-13T14:33:57;641.92;;;406.55;;
57231;SDS011;43488;46.934;8.276;2023-07-13T14:36:31;628.88;;;431.27;;
57231;SDS011;43488;46.934;8.276;2023-07-13T14:39:16;653.75;;;427.48;;
57231;SDS011;43488;46.934;8.276;2023-07-13T14:41:50;647.05;;;409.02;;
57231;SDS011;43488;46.934;8.276;2023-07-13T14:44:24;642.45;;;454.63;;
57231;SDS011;43488;46.934;8.276;2023-07-13T14:46:56;647.42;;;426.20;;
57231;SDS011;43488;46.934;8.276;2023-07-13T14:52:02;638.30;;;448.85;;
57231;SDS011;43488;46.934;8.276;2023-07-13T14:54:38;645.45;;;411.10;;
57231;SDS011;43488;46.934;8.276;2023-07-13T14:57:11;652.05;;;459.25;;
57231;SDS011;43488;46.934;8.276;2023-07-13T14:59:40;645.72;;;412.90;;
57231;SDS011;43488;46.934;8.276;2023-07-13T15:07:42;642.83;;;404.23;;
57231;SDS011;43488;46.934;8.276;2023-07-13T15:10:16;636.28;;;396.80;;
57231;SDS011;43488;46.934;8.276;2023-07-13T15:12:52;649.35;;;421.30;;
57231;SDS011;43488;46.934;8.276;2023-07-13T15:15:24;642.80;;;389.35;;
57231;SDS011;43488;46.934;8.276;2023-07-13T15:17:51;623.40;;;443.05;;
57231;SDS011;43488;46.934;8.276;2023-07-13T15:20:25;637.80;;;409.52;;
57231;SDS011;43488;46.934;8.276;2023-07-13T15:23:01;627.72;;;440.25;;